Time;durP1;ratioP1;P1;durP2;ratioP2;P2;SDS_P1;SDS_P2;PMS_P1;PMS_P2;Temp;Humidity;BMP_temperature;BMP_pressure;BME280_temperature;BME280_humidity;BME280_pressure;Samples;Min_cycle;Max_cycle;Signal;HPM_P1;HPM_P2
2024/04/07 00:00:22;;;;;;;5.63;3.13;;;17.50;99.90;;;;;;5115733;28;20522;-67
2024/04/07 00:02:49;;;;;;;6.17;4.13;;;17.50;99.90;;;;;;5115777;28;20253;-67
2024/04/07 00:05:16;;;;;;;3.83;2.70;;;17.40;99.90;;;;;;5115561;27;20963;-67
2024/04/07 00:07:42;;;;;;;3.13;2.77;;;17.40;99.90;;;;;;5115604;28;21000;-66
2024/04/07 00:10:08;;;;;;;5.93;3.73;;;17.30;99.90;;;;;;5115433;27;20544;-67
2024/04/07 00:12:35;;;;;;;13.03;5.50;;;17.30;99.90;;;;;;5115658;28;20236;-66
2024/04/07 00:15:02;;;;;;;8.33;4.37;;;17.30;99.90;;;;;;5115459;28;20453;-67
2024/04/07 00:17:28;;;;;;;6.87;4.47;;;17.20;99.90;;;;;;5115416;28;20440;-66
2024/04/07 00:19:54;;;;;;;5.77;4.30;;;17.20;99.90;;;;;;5115205;28;20568;-67
2024/04/07 00:22:20;;;;;;;6.07;3.90;;;17.10;99.90;;;;;;5115527;28;20191;-67
2024/04/07 00:24:46;;;;;;;3.90;3.47;;;17.10;99.90;;;;;;5115443;28;20869;-67
2024/04/07 00:27:12;;;;;;;8.73;3.90;;;17.10;99.90;;;;;;5115304;28;20275;-67
2024/04/07 00:29:39;;;;;;;6.33;3.77;;;17.00;99.90;;;;;;5115162;28;21006;-67
2024/04/07 00:32:06;;;;;;;6.60;4.00;;;17.00;99.90;;;;;;5115068;28;20278;-66
2024/04/07 00:34:32;;;;;;;6.33;3.87;;;16.90;99.90;;;;;;5115021;28;20473;-67
2024/04/07 00:36:58;;;;;;;3.20;3.00;;;16.90;99.90;;;;;;5115216;28;20438;-66
2024/04/07 00:39:24;;;;;;;7.30;3.93;;;16.90;99.90;;;;;;5114511;28;20905;-66
2024/04/07 00:41:49;;;;;;;3.90;3.57;;;16.80;99.90;;;;;;5115029;28;20274;-67
2024/04/07 00:44:16;;;;;;;4.03;3.53;;;16.80;99.90;;;;;;5114892;28;20540;-67
2024/04/07 00:46:43;;;;;;;4.00;3.70;;;16.80;99.90;;;;;;5114609;28;20230;-67
2024/04/07 00:49:09;;;;;;;3.60;3.17;;;16.70;99.90;;;;;;5114753;28;20514;-66
2024/04/07 00:51:36;;;;;;;4.87;3.30;;;16.70;99.90;;;;;;5114901;28;20456;-66
2024/04/07 00:54:03;;;;;;;3.80;3.33;;;16.70;99.90;;;;;;5114770;28;20483;-67
2024/04/07 00:56:28;;;;;;;4.20;3.80;;;16.70;99.90;;;;;;5114704;28;20446;-66
2024/04/07 00:58:55;;;;;;;5.40;2.70;;;16.70;99.90;;;;;;5114502;28;20611;-66
2024/04/07 01:01:21;;;;;;;4.30;3.73;;;16.70;99.90;;;;;;5114494;28;20280;-66
2024/04/07 01:03:48;;;;;;;3.23;2.93;;;16.70;99.90;;;;;;5114723;28;20561;-66
2024/04/07 01:06:16;;;;;;;3.50;3.07;;;16.60;99.90;;;;;;5114669;28;20187;-66
2024/04/07 01:08:43;;;;;;;3.10;2.83;;;16.50;99.90;;;;;;5114531;28;20456;-66
2024/04/07 01:11:08;;;;;;;5.03;3.23;;;16.60;99.90;;;;;;5114504;28;20971;-67
2024/04/07 01:13:35;;;;;;;3.77;3.40;;;16.50;99.90;;;;;;5114408;28;20532;-66
2024/04/07 01:16:00;;;;;;;3.97;3.67;;;16.50;99.90;;;;;;5114227;28;20630;-66
2024/04/07 01:18:27;;;;;;;2.93;2.73;;;16.50;99.90;;;;;;5114499;28;20548;-66
2024/04/07 01:20:54;;;;;;;3.63;3.10;;;16.40;99.90;;;;;;5114358;28;20191;-66
2024/04/07 01:23:22;;;;;;;3.37;3.00;;;16.50;99.90;;;;;;5114244;28;20543;-66
2024/04/07 01:25:48;;;;;;;4.33;2.63;;;16.40;99.90;;;;;;5114151;28;20540;-67
2024/04/07 01:28:14;;;;;;;3.43;3.13;;;16.40;99.90;;;;;;5114052;28;20548;-67
2024/04/07 01:30:40;;;;;;;3.47;2.90;;;16.40;99.90;;;;;;5113880;28;20190;-66
2024/04/07 01:33:07;;;;;;;3.20;2.90;;;16.30;99.90;;;;;;5114272;28;20461;-66
2024/04/07 01:35:34;;;;;;;3.53;2.60;;;16.20;99.90;;;;;;5114071;28;20445;-66
2024/04/07 01:38:01;;;;;;;3.50;3.00;;;16.20;99.90;;;;;;5114114;28;20457;-67
2024/04/07 01:40:28;;;;;;;3.60;3.30;;;16.10;99.90;;;;;;5114106;27;20572;-67
2024/04/07 01:42:54;;;;;;;3.33;3.03;;;16.10;99.90;;;;;;5113823;28;20833;-66
2024/04/07 01:45:20;;;;;;;3.17;2.90;;;16.10;99.90;;;;;;5114032;28;20536;-66
2024/04/07 01:47:47;;;;;;;7.53;6.80;;;16.10;99.90;;;;;;5113736;28;21000;-66
2024/04/07 01:50:13;;;;;;;3.97;3.70;;;16.10;99.90;;;;;;5113198;28;20191;-66
2024/04/07 01:52:40;;;;;;;3.10;2.90;;;16.00;99.90;;;;;;5113689;28;20456;-66
2024/04/07 01:55:07;;;;;;;3.73;2.70;;;16.00;99.90;;;;;;5113688;28;20448;-66
2024/04/07 01:57:36;;;;;;;2.97;2.67;;;16.00;99.90;;;;;;5113587;28;20456;-66
2024/04/07 02:00:02;;;;;;;2.90;2.70;;;16.00;99.90;;;;;;5113727;28;20484;-66
2024/04/07 02:02:28;;;;;;;5.37;3.27;;;16.00;99.90;;;;;;5113714;28;20506;-66
2024/04/07 02:04:54;;;;;;;4.50;2.93;;;15.90;99.90;;;;;;5113423;28;21042;-66
2024/04/07 02:07:21;;;;;;;4.20;3.20;;;15.90;99.90;;;;;;5113588;28;20492;-66
2024/04/07 02:09:47;;;;;;;3.17;2.70;;;16.00;99.90;;;;;;5113522;28;20813;-66
2024/04/07 02:12:14;;;;;;;5.50;2.87;;;15.90;99.90;;;;;;5113415;28;20844;-66
2024/04/07 02:14:41;;;;;;;5.93;4.23;;;15.90;99.90;;;;;;5113621;28;20540;-66
2024/04/07 02:17:08;;;;;;;3.47;3.17;;;15.90;99.90;;;;;;5113548;28;20540;-67
2024/04/07 02:19:33;;;;;;;3.77;3.47;;;15.80;99.90;;;;;;5113540;28;20550;-66
2024/04/07 02:22:00;;;;;;;3.90;3.60;;;15.80;99.90;;;;;;5113393;28;20461;-66
2024/04/07 02:24:25;;;;;;;3.47;3.17;;;15.80;99.90;;;;;;5113409;28;20198;-66
2024/04/07 02:26:52;;;;;;;3.80;3.33;;;15.70;99.90;;;;;;5113209;28;20543;-66
2024/04/07 02:29:18;;;;;;;8.50;2.67;;;15.80;99.90;;;;;;5113450;28;20195;-66
2024/04/07 02:31:45;;;;;;;3.60;2.93;;;15.90;99.90;;;;;;5113364;28;20506;-66
2024/04/07 02:34:12;;;;;;;3.27;3.07;;;15.80;99.90;;;;;;5113284;28;20202;-66
2024/04/07 02:36:39;;;;;;;4.43;3.17;;;15.80;99.90;;;;;;5113109;28;20468;-66
2024/04/07 02:39:09;;;;;;;4.67;3.27;;;15.80;99.90;;;;;;5113061;28;20467;-66
2024/04/07 02:41:35;;;;;;;3.10;2.90;;;15.90;99.90;;;;;;5113099;28;20484;-66
2024/04/07 02:44:01;;;;;;;3.20;3.00;;;15.90;99.90;;;;;;5113327;28;20444;-66
2024/04/07 02:49:13;;;;;;;3.80;3.03;;;15.90;99.90;;;;;;5113141;28;20547;-66
2024/04/07 02:51:39;;;;;;;3.60;3.30;;;15.90;99.90;;;;;;5112978;28;20805;-66
2024/04/07 02:54:10;;;;;;;2.90;2.70;;;15.90;99.90;;;;;;5113400;28;20540;-68
2024/04/07 02:56:35;;;;;;;4.60;3.33;;;16.00;99.90;;;;;;5113168;28;20996;-66
2024/04/07 02:59:02;;;;;;;3.67;3.00;;;16.00;99.90;;;;;;5113071;28;20472;-66
2024/04/07 03:01:27;;;;;;;3.77;3.47;;;16.00;99.90;;;;;;5113127;28;20277;-66
2024/04/07 03:03:54;;;;;;;3.47;3.20;;;16.00;99.90;;;;;;5116914;28;20553;-66
2024/04/07 03:06:21;;;;;;;3.73;3.30;;;16.00;99.90;;;;;;5116847;28;20224;-66
2024/04/07 03:08:51;;;;;;;8.10;4.00;;;16.00;99.90;;;;;;5116968;28;20964;-67
2024/04/07 03:11:16;;;;;;;4.10;3.43;;;16.00;99.90;;;;;;5116886;28;20449;-66
2024/04/07 03:13:43;;;;;;;2.70;2.60;;;15.90;99.90;;;;;;5116769;28;20506;-66
2024/04/07 03:16:10;;;;;;;4.90;3.60;;;15.90;99.90;;;;;;5116634;28;20282;-66
2024/04/07 03:18:36;;;;;;;3.77;3.20;;;15.90;99.90;;;;;;5116610;28;20562;-66
2024/04/07 03:21:02;;;;;;;3.73;3.43;;;15.90;99.90;;;;;;5116458;28;20448;-66
2024/04/07 03:23:30;;;;;;;5.27;3.90;;;15.90;99.90;;;;;;5116478;28;20967;-67
2024/04/07 03:25:56;;;;;;;5.90;3.40;;;15.90;99.90;;;;;;5116548;28;20451;-66
2024/04/07 03:28:22;;;;;;;3.40;3.10;;;15.90;99.90;;;;;;5116513;28;20538;-66
2024/04/07 03:30:48;;;;;;;4.47;3.70;;;15.90;99.90;;;;;;5116436;28;20191;-66
2024/04/07 03:33:15;;;;;;;3.80;3.50;;;15.90;99.90;;;;;;5116333;28;20494;-66
2024/04/07 03:35:40;;;;;;;3.90;3.57;;;15.90;99.90;;;;;;5116171;28;20532;-66
2024/04/07 03:38:07;;;;;;;4.37;3.50;;;15.90;99.90;;;;;;5116397;28;20877;-66
2024/04/07 03:40:38;;;;;;;4.30;3.30;;;15.90;99.90;;;;;;5116211;28;20247;-66
2024/04/07 03:43:04;;;;;;;3.50;3.20;;;15.90;99.90;;;;;;5116227;28;20449;-66
2024/04/07 03:45:31;;;;;;;3.50;3.20;;;15.90;99.90;;;;;;5115956;28;20537;-66
2024/04/07 03:47:56;;;;;;;3.57;3.27;;;15.90;99.90;;;;;;5115996;28;20452;-66
2024/04/07 03:50:23;;;;;;;3.67;3.23;;;15.90;99.90;;;;;;5115868;28;20545;-66
2024/04/07 03:52:48;;;;;;;3.80;3.50;;;15.80;99.90;;;;;;5116075;28;20612;-66
2024/04/07 03:55:15;;;;;;;3.07;2.80;;;15.80;99.90;;;;;;5115992;28;20544;-66
2024/04/07 03:57:43;;;;;;;6.77;3.40;;;15.80;99.90;;;;;;5115970;27;20191;-66
2024/04/07 04:00:10;;;;;;;2.93;2.73;;;15.80;99.90;;;;;;5115822;28;20473;-66
2024/04/07 04:02:36;;;;;;;3.57;3.27;;;15.80;99.90;;;;;;5115668;28;20459;-66
2024/04/07 04:05:03;;;;;;;4.00;3.57;;;15.80;99.90;;;;;;5115939;28;20538;-66
2024/04/07 04:07:31;;;;;;;3.90;3.60;;;15.80;99.90;;;;;;5115810;28;20548;-66
2024/04/07 04:09:58;;;;;;;3.23;2.90;;;15.70;99.90;;;;;;5115649;28;20540;-66
2024/04/07 04:12:25;;;;;;;3.53;3.30;;;15.80;99.90;;;;;;5115692;28;20535;-66
2024/04/07 04:14:52;;;;;;;3.53;3.23;;;15.70;99.90;;;;;;5114559;28;20454;-66
2024/04/07 04:17:19;;;;;;;4.97;3.13;;;15.80;99.90;;;;;;5115457;28;20791;-66
2024/04/07 04:19:44;;;;;;;3.37;3.17;;;15.80;99.90;;;;;;5115520;28;20486;-66
2024/04/07 04:22:11;;;;;;;8.70;5.50;;;15.80;99.90;;;;;;5115453;28;20552;-66
2024/04/07 04:24:37;;;;;;;3.63;3.43;;;15.70;99.90;;;;;;5115470;28;20275;-67
2024/04/07 04:27:04;;;;;;;3.20;3.00;;;15.80;99.90;;;;;;5115334;28;20552;-66
2024/04/07 04:29:30;;;;;;;3.50;3.20;;;15.80;99.90;;;;;;5115180;28;20541;-66
2024/04/07 04:31:58;;;;;;;4.70;3.73;;;15.80;99.90;;;;;;5115143;28;20821;-66
2024/04/07 04:34:24;;;;;;;4.37;3.60;;;15.80;99.90;;;;;;5115286;28;20441;-66
2024/04/07 04:36:51;;;;;;;4.27;3.97;;;15.70;99.90;;;;;;5115159;28;20537;-66
2024/04/07 04:39:17;;;;;;;6.37;3.23;;;15.70;99.90;;;;;;5115040;28;20208;-66
2024/04/07 04:41:45;;;;;;;3.80;3.50;;;15.70;99.90;;;;;;5115003;28;20457;-66
2024/04/07 04:44:11;;;;;;;3.40;3.20;;;15.60;99.90;;;;;;5114899;28;20452;-66
2024/04/07 04:46:38;;;;;;;3.53;3.33;;;15.50;99.90;;;;;;5114782;28;20983;-66
2024/04/07 04:49:05;;;;;;;4.00;3.70;;;15.40;99.90;;;;;;5114996;28;20187;-66
2024/04/07 04:51:31;;;;;;;4.03;3.60;;;15.40;99.90;;;;;;5114934;28;20978;-66
2024/04/07 04:53:57;;;;;;;4.10;3.57;;;15.40;99.90;;;;;;5114849;28;20497;-66
2024/04/07 04:56:23;;;;;;;3.50;3.20;;;15.40;99.90;;;;;;5114741;28;20851;-66
2024/04/07 04:58:49;;;;;;;7.37;3.40;;;15.40;99.90;;;;;;5114555;28;20200;-66
2024/04/07 05:01:16;;;;;;;3.60;3.33;;;15.40;99.90;;;;;;5114506;28;20986;-66
2024/04/07 05:03:44;;;;;;;4.60;3.70;;;15.40;99.90;;;;;;5114692;28;20307;-66
2024/04/07 05:06:13;;;;;;;3.67;3.43;;;15.40;99.90;;;;;;5114538;28;20460;-66
2024/04/07 05:08:39;;;;;;;2.80;2.60;;;15.50;99.90;;;;;;5114411;28;20444;-66
2024/04/07 05:11:07;;;;;;;3.97;3.53;;;15.50;99.90;;;;;;5114485;28;20846;-66
2024/04/07 05:13:33;;;;;;;4.43;4.07;;;15.60;99.90;;;;;;5114305;28;20535;-66
2024/04/07 05:16:00;;;;;;;3.23;2.80;;;15.60;99.90;;;;;;5114456;28;20482;-67
2024/04/07 05:18:26;;;;;;;3.40;2.90;;;15.80;99.90;;;;;;5114404;28;20441;-66
2024/04/07 05:20:55;;;;;;;3.20;2.90;;;15.80;99.90;;;;;;5114194;28;20512;-66
2024/04/07 05:23:22;;;;;;;3.63;3.33;;;15.90;99.90;;;;;;5114225;28;20451;-66
2024/04/07 05:25:48;;;;;;;3.50;3.20;;;16.00;99.90;;;;;;5113974;28;20852;-67
2024/04/07 05:28:14;;;;;;;3.60;3.30;;;16.10;99.90;;;;;;5114310;28;20438;-66
2024/04/07 05:30:40;;;;;;;4.20;2.83;;;16.20;99.90;;;;;;5114243;28;20532;-66
2024/04/07 05:33:06;;;;;;;3.87;3.00;;;16.30;99.90;;;;;;5114302;28;20199;-66
2024/04/07 05:35:33;;;;;;;3.43;2.87;;;16.30;99.90;;;;;;5114037;28;20526;-66
2024/04/07 05:37:59;;;;;;;3.33;3.03;;;16.40;99.90;;;;;;5113976;28;20188;-66
2024/04/07 05:40:27;;;;;;;3.20;3.00;;;16.50;99.90;;;;;;5113784;28;20576;-66
2024/04/07 05:42:53;;;;;;;3.60;2.80;;;16.60;99.90;;;;;;5114075;28;20199;-66
2024/04/07 05:45:20;;;;;;;2.80;2.60;;;16.70;99.90;;;;;;5113909;28;20449;-66
2024/04/07 05:47:48;;;;;;;2.50;2.30;;;16.70;99.90;;;;;;5113587;28;20558;-66
2024/04/07 05:50:15;;;;;;;2.50;2.30;;;16.80;99.90;;;;;;5113749;28;20503;-66
2024/04/07 05:52:41;;;;;;;2.70;2.50;;;16.90;99.90;;;;;;5113742;28;20449;-66
2024/04/07 05:55:08;;;;;;;3.00;2.80;;;17.00;99.90;;;;;;5113566;28;20548;-66
2024/04/07 05:57:35;;;;;;;3.23;2.83;;;17.20;99.90;;;;;;5113773;28;20451;-66
2024/04/07 06:00:02;;;;;;;3.70;3.40;;;17.30;99.90;;;;;;5113665;28;20553;-66
2024/04/07 06:02:28;;;;;;;2.77;2.57;;;17.40;99.90;;;;;;5113624;28;20452;-66
2024/04/07 06:04:55;;;;;;;2.87;2.67;;;17.60;99.90;;;;;;5113526;28;20944;-67
2024/04/07 06:07:20;;;;;;;3.10;2.67;;;17.80;99.90;;;;;;5113544;28;20214;-67
2024/04/07 06:09:48;;;;;;;3.40;3.10;;;18.00;99.90;;;;;;5113385;28;20485;-66
2024/04/07 06:12:14;;;;;;;2.40;2.30;;;18.20;99.90;;;;;;5113607;28;20274;-66
2024/04/07 06:14:42;;;;;;;3.00;2.50;;;18.30;99.90;;;;;;5113505;28;20477;-66
2024/04/07 06:17:07;;;;;;;3.27;3.07;;;18.50;99.90;;;;;;5113457;28;20188;-66
2024/04/07 06:19:34;;;;;;;2.10;2.00;;;18.60;99.90;;;;;;5113412;28;20544;-66
2024/04/07 06:21:59;;;;;;;5.80;2.83;;;18.70;99.90;;;;;;5113302;28;20581;-66
2024/04/07 06:24:26;;;;;;;3.10;2.80;;;18.90;99.90;;;;;;5113309;28;20536;-66
2024/04/07 06:26:52;;;;;;;2.23;2.13;;;18.90;99.90;;;;;;5113487;28;20546;-66
2024/04/07 06:29:19;;;;;;;3.30;2.00;;;18.90;99.90;;;;;;5113408;28;20545;-67
2024/04/07 06:31:46;;;;;;;2.17;1.97;;;18.90;99.90;;;;;;5113349;28;20541;-66
2024/04/07 06:34:12;;;;;;;4.33;2.57;;;19.00;99.90;;;;;;5113208;28;20508;-66
2024/04/07 06:36:38;;;;;;;2.10;2.00;;;19.10;99.90;;;;;;5113541;28;20529;-67
2024/04/07 06:39:05;;;;;;;2.70;2.10;;;19.20;99.90;;;;;;5117308;28;20536;-66
2024/04/07 06:41:30;;;;;;;2.50;2.30;;;19.30;99.90;;;;;;5117418;28;20284;-66
2024/04/07 06:43:57;;;;;;;4.07;3.07;;;19.50;99.90;;;;;;5117428;28;20457;-67
2024/04/07 06:46:22;;;;;;;2.13;1.93;;;19.60;99.90;;;;;;5117081;28;20219;-67
2024/04/07 06:48:50;;;;;;;3.00;2.20;;;19.80;99.90;;;;;;5117202;28;20540;-67
2024/04/07 06:51:16;;;;;;;2.53;2.33;;;19.90;99.90;;;;;;5117161;28;20187;-67
2024/04/07 06:53:43;;;;;;;4.50;2.63;;;20.10;99.90;;;;;;5116961;28;20708;-66
2024/04/07 06:56:08;;;;;;;3.30;2.17;;;20.30;99.90;;;;;;5116982;28;20475;-66
2024/04/07 06:58:35;;;;;;;1.97;1.87;;;20.40;99.90;;;;;;5117086;28;20532;-67
2024/04/07 07:01:00;;;;;;;2.00;1.90;;;20.60;99.90;;;;;;5116947;28;20273;-67
2024/04/07 07:03:27;;;;;;;2.20;2.10;;;20.70;99.90;;;;;;5117002;28;20488;-67
2024/04/07 07:05:54;;;;;;;2.43;2.23;;;20.80;99.90;;;;;;5116847;28;20204;-66
2024/04/07 07:08:21;;;;;;;2.20;2.00;;;20.90;99.90;;;;;;5117041;28;20539;-66
2024/04/07 07:10:58;;;;;;;3.20;2.57;;;21.10;99.90;;;;;;5116934;28;20510;-66
2024/04/07 07:13:25;;;;;;;2.93;2.63;;;21.30;99.90;;;;;;5116673;28;20942;-66
2024/04/07 07:15:51;;;;;;;4.10;1.87;;;21.40;99.90;;;;;;5116754;28;20491;-66
2024/04/07 07:18:18;;;;;;;1.77;1.67;;;21.50;99.90;;;;;;5117156;28;20457;-67
2024/04/07 07:20:43;;;;;;;2.10;1.80;;;21.60;99.90;;;;;;5116450;28;20227;-67
2024/04/07 07:23:11;;;;;;;2.10;1.87;;;21.70;99.90;;;;;;5116511;28;20449;-67
2024/04/07 07:25:38;;;;;;;2.57;2.23;;;21.80;99.90;;;;;;5116373;28;20765;-67
2024/04/07 07:28:05;;;;;;;1.77;1.60;;;22.00;99.90;;;;;;5116436;28;20544;-67
2024/04/07 07:30:31;;;;;;;1.90;1.80;;;22.20;99.90;;;;;;5116378;28;20438;-67
2024/04/07 07:32:58;;;;;;;3.20;2.00;;;22.30;99.90;;;;;;5116233;28;20882;-66
2024/04/07 07:35:23;;;;;;;4.43;1.90;;;22.40;99.90;;;;;;5116549;28;20492;-67
2024/04/07 07:37:50;;;;;;;1.90;1.80;;;22.50;99.90;;;;;;5116319;28;20485;-67
2024/04/07 07:40:17;;;;;;;1.50;1.40;;;22.60;99.90;;;;;;5116259;28;20644;-67
2024/04/07 07:42:43;;;;;;;4.23;2.00;;;22.70;99.90;;;;;;5116320;28;20545;-67
2024/04/07 07:45:09;;;;;;;2.30;2.17;;;22.70;99.90;;;;;;5115940;28;20536;-67
2024/04/07 07:47:35;;;;;;;2.20;1.70;;;22.70;99.90;;;;;;5115649;28;20561;-67
2024/04/07 07:50:01;;;;;;;1.70;1.60;;;22.70;99.90;;;;;;5115086;28;20551;-67
2024/04/07 07:52:27;;;;;;;1.70;1.50;;;22.80;99.90;;;;;;5115898;28;20545;-67
2024/04/07 07:54:53;;;;;;;2.13;1.50;;;22.80;99.90;;;;;;5116010;28;20236;-67
2024/04/07 07:57:21;;;;;;;1.40;1.30;;;22.80;99.90;;;;;;5115816;28;20937;-67
2024/04/07 07:59:47;;;;;;;1.70;1.60;;;23.00;99.90;;;;;;5115863;28;20188;-67
2024/04/07 08:02:13;;;;;;;2.53;1.30;;;23.00;99.90;;;;;;5115691;28;20837;-67
2024/04/07 08:04:39;;;;;;;1.83;1.60;;;23.20;99.90;;;;;;5115963;28;20441;-67
2024/04/07 08:07:05;;;;;;;1.90;1.80;;;23.40;99.90;;;;;;5115851;28;20854;-67
2024/04/07 08:09:32;;;;;;;2.20;2.10;;;23.40;99.90;;;;;;5115572;28;20252;-67
2024/04/07 08:11:59;;;;;;;1.97;1.87;;;23.40;99.90;;;;;;5115745;28;20471;-67
2024/04/07 08:14:27;;;;;;;1.70;1.60;;;23.50;99.90;;;;;;5115513;28;20433;-67
2024/04/07 08:16:53;;;;;;;3.40;1.70;;;23.50;99.90;;;;;;5115889;28;20442;-67
2024/04/07 08:19:19;;;;;;;1.60;1.50;;;23.60;99.90;;;;;;5115534;28;20872;-67
2024/04/07 08:21:46;;;;;;;2.90;1.83;;;23.60;99.90;;;;;;5115356;28;20481;-67
2024/04/07 08:24:12;;;;;;;2.80;1.70;;;23.70;99.90;;;;;;5115521;28;20438;-67
2024/04/07 08:26:39;;;;;;;2.40;2.20;;;23.70;99.90;;;;;;5115289;28;20883;-67
2024/04/07 08:29:05;;;;;;;7.70;1.97;;;23.70;99.90;;;;;;5115179;28;20767;-67
2024/04/07 08:31:33;;;;;;;2.23;1.63;;;23.70;99.90;;;;;;5115104;28;20801;-67
2024/04/07 08:33:59;;;;;;;1.97;1.83;;;23.80;99.90;;;;;;5115021;28;20448;-67
2024/04/07 08:36:25;;;;;;;2.30;2.07;;;23.90;99.90;;;;;;5115203;28;20545;-67
2024/04/07 08:38:51;;;;;;;1.67;1.57;;;23.90;99.90;;;;;;5115190;28;20279;-67
2024/04/07 08:41:18;;;;;;;2.17;1.30;;;23.90;99.90;;;;;;5114964;28;20568;-67
2024/04/07 08:43:47;;;;;;;2.73;1.43;;;23.90;99.90;;;;;;5114917;28;20441;-67
2024/04/07 08:46:16;;;;;;;1.60;1.50;;;23.90;99.90;;;;;;5114953;28;20810;-67
2024/04/07 08:48:46;;;;;;;1.87;1.77;;;24.00;99.90;;;;;;5115102;28;20487;-67
2024/04/07 08:51:13;;;;;;;1.60;1.50;;;24.10;99.90;;;;;;5115044;28;20450;-67
2024/04/07 08:53:40;;;;;;;2.23;1.40;;;24.30;99.90;;;;;;5114910;28;20536;-67
2024/04/07 08:56:07;;;;;;;1.93;1.30;;;24.30;99.90;;;;;;5114701;28;20502;-67
2024/04/07 08:58:34;;;;;;;2.10;1.50;;;24.40;99.90;;;;;;5114504;28;20531;-67
2024/04/07 09:01:01;;;;;;;3.70;2.00;;;24.50;98.70;;;;;;5114189;28;20485;-67
2024/04/07 09:03:28;;;;;;;1.73;1.60;;;24.50;95.80;;;;;;5114716;28;20540;-67
2024/04/07 09:05:57;;;;;;;2.00;1.83;;;24.40;96.10;;;;;;5114677;28;20582;-67
2024/04/07 09:08:23;;;;;;;1.67;1.40;;;24.40;97.10;;;;;;5114205;28;20990;-67
2024/04/07 09:10:49;;;;;;;1.70;1.60;;;24.30;94.70;;;;;;5114377;28;20450;-67
2024/04/07 09:13:16;;;;;;;4.63;2.23;;;24.40;95.90;;;;;;5114535;28;20187;-67
2024/04/07 09:15:43;;;;;;;6.50;1.70;;;24.50;95.60;;;;;;5114264;28;20532;-67
2024/04/07 09:18:10;;;;;;;2.13;1.37;;;24.50;95.90;;;;;;5114398;28;20612;-67
2024/04/07 09:20:36;;;;;;;4.27;1.73;;;24.60;95.90;;;;;;5114201;28;20477;-67
2024/04/07 09:23:03;;;;;;;2.40;1.33;;;24.60;94.70;;;;;;5114202;28;20448;-67
2024/04/07 09:25:31;;;;;;;2.30;1.70;;;24.60;95.50;;;;;;5114630;28;20461;-68
2024/04/07 09:27:56;;;;;;;2.93;1.80;;;24.70;94.50;;;;;;5114364;28;20536;-67
2024/04/07 09:30:23;;;;;;;2.03;1.70;;;24.70;95.80;;;;;;5114298;28;20549;-67
2024/04/07 09:32:49;;;;;;;4.87;1.40;;;24.70;94.30;;;;;;5114105;28;20199;-67
2024/04/07 09:35:15;;;;;;;1.80;1.63;;;24.70;94.50;;;;;;5114092;27;20933;-67
2024/04/07 09:37:41;;;;;;;3.77;1.63;;;24.80;94.80;;;;;;5113918;28;20204;-67
2024/04/07 09:40:10;;;;;;;2.07;1.70;;;24.90;94.30;;;;;;5113743;28;20635;-67
2024/04/07 09:42:38;;;;;;;3.73;1.70;;;25.00;92.50;;;;;;5114038;28;20865;-67
2024/04/07 09:45:07;;;;;;;3.50;1.60;;;24.90;92.20;;;;;;5113943;28;20485;-67
2024/04/07 09:47:35;;;;;;;3.23;1.70;;;25.00;92.30;;;;;;5113498;28;20477;-67
2024/04/07 09:50:05;;;;;;;2.50;1.60;;;25.10;92.00;;;;;;5113755;28;20453;-67
2024/04/07 09:52:40;;;;;;;2.50;1.53;;;25.10;91.50;;;;;;5113663;28;20437;-67
2024/04/07 09:55:12;;;;;;;2.53;1.33;;;25.10;90.70;;;;;;5113879;28;20477;-67
2024/04/07 09:57:37;;;;;;;2.80;1.87;;;25.00;91.10;;;;;;5113732;28;20484;-67
2024/04/07 10:00:05;;;;;;;3.00;1.50;;;25.00;91.50;;;;;;5113411;28;20481;-67
2024/04/07 10:02:32;;;;;;;2.13;1.50;;;24.90;91.20;;;;;;5113579;28;20230;-67
2024/04/07 10:04:59;;;;;;;4.83;1.57;;;24.90;91.50;;;;;;5113495;28;20481;-67
2024/04/07 10:07:25;;;;;;;4.90;1.60;;;24.90;91.50;;;;;;5113383;28;20959;-67
2024/04/07 10:09:52;;;;;;;1.57;1.47;;;25.10;91.60;;;;;;5113664;28;20457;-67
2024/04/07 10:12:29;;;;;;;2.43;1.40;;;25.30;91.50;;;;;;5112785;28;20570;-67
2024/04/07 10:14:56;;;;;;;2.80;1.50;;;25.50;90.90;;;;;;5113253;28;20460;-67
2024/04/07 10:17:22;;;;;;;2.67;1.60;;;25.40;90.50;;;;;;5113305;28;20445;-67
2024/04/07 10:19:50;;;;;;;4.70;2.10;;;25.30;90.90;;;;;;5113265;28;20457;-68
2024/04/07 10:22:16;;;;;;;4.73;1.83;;;25.50;90.60;;;;;;5113350;28;20487;-68
2024/04/07 10:24:43;;;;;;;2.70;1.50;;;25.60;91.00;;;;;;5113462;28;20878;-67
2024/04/07 10:27:10;;;;;;;4.40;1.50;;;25.60;90.30;;;;;;5113319;28;20442;-67
2024/04/07 10:29:40;;;;;;;7.37;1.80;;;25.80;90.80;;;;;;5113248;28;20506;-67
2024/04/07 10:32:17;;;;;;;2.10;1.60;;;25.90;90.30;;;;;;5113304;28;20804;-68
2024/04/07 10:34:58;;;;;;;3.40;1.73;;;26.10;90.20;;;;;;5113540;28;20531;-68
2024/04/07 10:37:25;;;;;;;3.33;1.80;;;25.80;89.50;;;;;;5113327;28;20448;-68
2024/04/07 10:39:52;;;;;;;3.20;2.10;;;25.70;90.00;;;;;;5113174;28;20460;-68
2024/04/07 10:42:17;;;;;;;4.07;2.00;;;25.70;90.90;;;;;;5113010;28;20506;-68
2024/04/07 10:44:46;;;;;;;2.33;1.70;;;25.60;90.10;;;;;;5113062;28;20556;-67
2024/04/07 10:47:11;;;;;;;7.10;2.10;;;25.60;91.20;;;;;;5113024;28;20767;-67
2024/04/07 10:49:38;;;;;;;3.03;1.43;;;25.70;90.80;;;;;;5113125;28;20536;-68
2024/04/07 10:52:11;;;;;;;2.13;1.97;;;25.70;91.10;;;;;;5112985;28;20198;-68
2024/04/07 10:54:38;;;;;;;3.40;1.83;;;25.70;90.10;;;;;;5113118;28;20457;-67
2024/04/07 10:57:03;;;;;;;4.30;1.90;;;25.70;90.70;;;;;;5112935;28;20900;-68
2024/04/07 10:59:30;;;;;;;2.90;1.37;;;25.40;90.00;;;;;;5112853;28;20536;-68
2024/04/07 11:01:57;;;;;;;2.47;1.77;;;25.20;90.90;;;;;;5112958;28;20251;-68
2024/04/07 11:04:23;;;;;;;6.10;1.80;;;25.30;91.10;;;;;;5112990;28;20465;-68
2024/04/07 11:06:49;;;;;;;4.00;2.10;;;25.10;90.30;;;;;;5112987;28;20448;-68
2024/04/07 11:09:15;;;;;;;3.17;2.17;;;25.00;91.80;;;;;;5113315;28;20880;-67
2024/04/07 11:11:42;;;;;;;1.50;1.40;;;24.90;91.00;;;;;;5112884;28;20658;-68
2024/04/07 11:14:09;;;;;;;1.80;1.70;;;24.80;91.80;;;;;;5112979;28;20442;-68
2024/04/07 11:16:35;;;;;;;2.27;1.80;;;24.70;91.00;;;;;;5112981;28;20445;-68
2024/04/07 11:19:03;;;;;;;2.73;1.90;;;24.50;92.20;;;;;;5112931;28;20514;-68
2024/04/07 11:21:28;;;;;;;3.60;2.10;;;24.40;91.10;;;;;;5112717;28;20810;-68
2024/04/07 11:23:55;;;;;;;3.10;2.10;;;24.30;91.60;;;;;;5115111;28;20537;-68
2024/04/07 11:26:20;;;;;;;2.07;1.70;;;24.20;91.90;;;;;;5116331;28;20192;-68
2024/04/07 11:28:49;;;;;;;3.20;2.23;;;24.40;92.80;;;;;;5116558;28;20521;-68
2024/04/07 11:31:18;;;;;;;3.53;2.17;;;24.50;92.80;;;;;;5116455;28;20188;-68
2024/04/07 11:33:45;;;;;;;3.90;2.13;;;24.50;92.40;;;;;;5116214;28;20956;-68
2024/04/07 11:36:12;;;;;;;1.70;1.50;;;24.50;92.30;;;;;;5116255;28;20441;-68
2024/04/07 11:38:39;;;;;;;2.17;1.87;;;24.60;92.10;;;;;;5116077;28;20937;-68
2024/04/07 11:41:05;;;;;;;3.03;1.93;;;24.70;91.90;;;;;;5115898;28;20473;-68
2024/04/07 11:43:31;;;;;;;1.90;1.80;;;24.40;92.00;;;;;;5116296;28;20456;-68
2024/04/07 11:45:57;;;;;;;3.80;2.30;;;24.60;92.50;;;;;;5115859;28;20230;-68
2024/04/07 11:48:23;;;;;;;3.73;2.07;;;24.80;93.40;;;;;;5116050;28;20540;-68
2024/04/07 11:50:49;;;;;;;2.73;1.70;;;24.90;92.10;;;;;;5115954;28;20282;-68
2024/04/07 11:53:17;;;;;;;4.43;2.50;;;25.00;92.30;;;;;;5115892;28;20542;-68
2024/04/07 11:55:42;;;;;;;3.53;1.53;;;24.90;91.60;;;;;;5115800;28;20625;-68
2024/04/07 11:58:10;;;;;;;5.43;2.30;;;25.00;91.20;;;;;;5115987;28;20481;-68
2024/04/07 12:00:35;;;;;;;4.93;2.87;;;24.80;91.00;;;;;;5115899;28;20224;-68
2024/04/07 12:03:02;;;;;;;3.03;1.63;;;24.80;90.90;;;;;;5115791;28;20493;-68
2024/04/07 12:05:27;;;;;;;2.23;1.50;;;24.90;92.20;;;;;;5115724;28;20547;-68
2024/04/07 12:07:54;;;;;;;2.07;1.90;;;24.80;91.40;;;;;;5115494;28;20479;-68
2024/04/07 12:10:21;;;;;;;3.63;2.00;;;24.90;91.80;;;;;;5115382;28;20196;-68
2024/04/07 12:12:47;;;;;;;2.83;2.10;;;25.00;91.30;;;;;;5115437;28;20976;-68
2024/04/07 12:15:13;;;;;;;3.70;2.47;;;25.20;92.60;;;;;;5115603;28;20491;-68
2024/04/07 12:17:40;;;;;;;5.40;2.37;;;25.40;92.20;;;;;;5115505;28;20457;-68
2024/04/07 12:20:08;;;;;;;3.30;2.10;;;25.50;91.40;;;;;;5115481;28;20449;-68
2024/04/07 12:22:38;;;;;;;3.80;2.20;;;25.60;91.60;;;;;;5115285;28;20488;-68
2024/04/07 12:25:04;;;;;;;2.30;2.20;;;25.50;92.00;;;;;;5115582;28;20441;-68
2024/04/07 12:27:32;;;;;;;4.67;1.90;;;25.40;92.30;;;;;;5115454;28;20798;-68
2024/04/07 12:29:57;;;;;;;2.43;2.23;;;25.60;91.60;;;;;;5115397;28;20861;-68
2024/04/07 12:32:24;;;;;;;2.70;1.90;;;25.70;91.90;;;;;;5115267;28;20544;-68
2024/04/07 12:34:50;;;;;;;4.10;2.10;;;26.00;92.20;;;;;;5114325;28;20278;-68
2024/04/07 12:37:16;;;;;;;2.60;1.87;;;26.10;92.00;;;;;;5115055;28;20489;-68
2024/04/07 12:39:42;;;;;;;2.90;1.70;;;26.10;92.00;;;;;;5114951;28;20287;-68
2024/04/07 12:42:08;;;;;;;2.10;1.93;;;26.10;91.30;;;;;;5115063;28;20568;-68
2024/04/07 12:44:35;;;;;;;1.87;1.77;;;26.30;91.50;;;;;;5115011;28;20190;-68
2024/04/07 12:47:02;;;;;;;2.67;2.10;;;26.20;92.20;;;;;;5114695;28;20530;-68